Weather at Ohrid St. Paul the Apostle Airport

Public forecast

Using degrees Celsius for public forecast. Weather courtesy of forecast.io.

Current aviation weather report (METAR) for Ohrid St. Paul the Apostle Airport

2024/05/19 07:20 (retrieved 6 minutes ago)

LWOH 190720Z 16003KT 130V190 9999 SCT008 BKN032 18/16 Q1015

Aviation forecast (TAF) for Ohrid St. Paul the Apostle Airport

2024/05/19 06:38 (retrieved 48 minutes ago)

TAF LWOH 190530Z 1906/2006 VRB02KT 9999 FEW010 OVC030 TEMPO 1906/1910 5000 RA BKN015 OVC030 TEMPO 1912/1918 VRB15KT TSRA SCT033CB OVC040